F.r. Bigelow — WDB8153 — position and weather

sailwx.info

Track history (hours):
 
Tides and Currents Weather Stations Pressure Air Temp Water Temp Dewpoint Dewpoint Depression Visibility Wind Speed Wind Dir Waves Ship Positions

F.r. Bigelow

Owner: INGRAM BARGE COMPANY, Nashville, TN. More information available from US FCC via Universal Licensing System and Coast Guard Vessel Documentation Center.

Last reported at 2017-Apr-09 13:46 UTC. Time now 2017-Apr-29 11:27 UTC.
Position N 30°03' W 090°34'.
Warning: this ship's position is 19 days out of date.

Length 46 m; draft 2.8 m.

Type: Towing. MMSI: 366953890.

Date/timePositionNaut miles runAvg speedWind from/ knotsBaromVisibWave heightAir tempDewpointWater temp
2017-Apr-09 13:46N 30°03' W 090°34'  
2017-Apr-04 15:21N 29°38' W 089°55'0 0.0
2017-Apr-04 15:00N 29°38' W 089°55'0 0.0
2017-Apr-04 14:14N 29°38' W 089°55'0 0.0
2017-Apr-04 12:49N 29°38' W 089°55'0 0.0
2017-Apr-04 12:28N 29°38' W 089°55'0 0.0
2017-Apr-04 12:00N 29°38' W 089°55'0 0.0
2017-Apr-04 11:30N 29°38' W 089°55'0 0.0
2017-Apr-04 11:00N 29°38' W 089°55'0 0.0
2017-Apr-04 10:26N 29°38' W 089°55'0 0.4
2017-Apr-04 10:00N 29°38' W 089°56'0 0.7
2017-Apr-04 09:24N 29°38' W 089°56'2 1.2
2017-Apr-04 07:42N 29°39' W 089°57'2 4.8
2017-Apr-04 07:22N 29°40' W 089°58'1 1.3
2017-Apr-04 06:22N 29°42' W 089°58'0 0.0
2017-Apr-04 06:00N 29°42' W 089°58'58 1.2
2017-Apr-02 05:05N 30°06' W 090°58'1 4.6
2017-Apr-02 04:55N 30°06' W 090°57'2 3.9
2017-Apr-02 04:30N 30°08' W 090°57'21 1.4
2017-Apr-01 13:05N 30°03' W 090°33'0 0.0
2017-Apr-01 13:00N 30°03' W 090°33'  
Track history (hours):
 
Tides and Currents Weather Stations Pressure Air Temp Water Temp Dewpoint Dewpoint Depression Visibility Wind Speed Wind Dir Waves Ship Positions

F.r. Bigelow

Owner: INGRAM BARGE COMPANY, Nashville, TN. More information available from US FCC via Universal Licensing System and Coast Guard Vessel Documentation Center.

Last reported at 2017-Apr-09 13:46 UTC. Time now 2017-Apr-29 11:27 UTC.
Position N 30°03' W 090°34'.
Warning: this ship's position is 19 days out of date.

Length 46 m; draft 2.8 m.

Type: Towing. MMSI: 366953890.

Date/timePositionNaut miles runAvg speedWind from/ knotsBaromVisibWave heightAir tempDewpointWater temp
2017-Apr-09 13:46N 30°03' W 090°34'  
2017-Apr-04 15:21N 29°38' W 089°55'0 0.0
2017-Apr-04 15:00N 29°38' W 089°55'0 0.0
2017-Apr-04 14:14N 29°38' W 089°55'0 0.0
2017-Apr-04 12:49N 29°38' W 089°55'0 0.0
2017-Apr-04 12:28N 29°38' W 089°55'0 0.0
2017-Apr-04 12:00N 29°38' W 089°55'0 0.0
2017-Apr-04 11:30N 29°38' W 089°55'0 0.0
2017-Apr-04 11:00N 29°38' W 089°55'0 0.0
2017-Apr-04 10:26N 29°38' W 089°55'0 0.4
2017-Apr-04 10:00N 29°38' W 089°56'0 0.7
2017-Apr-04 09:24N 29°38' W 089°56'2 1.2
2017-Apr-04 07:42N 29°39' W 089°57'2 4.8
2017-Apr-04 07:22N 29°40' W 089°58'1 1.3
2017-Apr-04 06:22N 29°42' W 089°58'0 0.0
2017-Apr-04 06:00N 29°42' W 089°58'58 1.2
2017-Apr-02 05:05N 30°06' W 090°58'1 4.6
2017-Apr-02 04:55N 30°06' W 090°57'2 3.9
2017-Apr-02 04:30N 30°08' W 090°57'21 1.4
2017-Apr-01 13:05N 30°03' W 090°33'0 0.0
2017-Apr-01 13:00N 30°03' W 090°33'  

Dump ship's entire track history